Time;durP1;ratioP1;P1;durP2;ratioP2;P2;SDS_P1;SDS_P2;PMS_P1;PMS_P2;Temp;Humidity;BMP_temperature;BMP_pressure;BME280_temperature;BME280_humidity;BME280_pressure;Samples;Min_cycle;Max_cycle;Signal;HPM_P1;HPM_P2
2023/08/28 00:01:03;;;;;;;3.28;0.70;;;;;;;;;;5061636;28;20056;-75
2023/08/28 00:03:34;;;;;;;2.85;0.70;;;;;;;;;;5061358;28;20847;-72
2023/08/28 00:06:04;;;;;;;2.28;0.75;;;;;;;;;;5061644;28;20416;-73
2023/08/28 00:08:35;;;;;;;2.08;0.80;;;;;;;;;;5063375;28;20060;-72
2023/08/28 00:11:05;;;;;;;3.92;0.60;;;;;;;;;;5061396;28;20079;-71
2023/08/28 00:13:36;;;;;;;0.98;0.60;;;;;;;;;;5061831;28;20055;-73
2023/08/28 00:16:06;;;;;;;1.63;1.00;;;;;;;;;;5060944;28;20040;-71
2023/08/28 00:18:36;;;;;;;2.28;0.40;;;;;;;;;;5061394;28;20056;-71
2023/08/28 00:21:07;;;;;;;1.85;1.02;;;;;;;;;;5061536;28;20118;-71
2023/08/28 00:23:38;;;;;;;5.28;2.50;;;;;;;;;;5060447;28;20056;-77
2023/08/28 00:26:09;;;;;;;7.35;2.22;;;;;;;;;;5061616;28;20040;-73
2023/08/28 00:28:39;;;;;;;8.43;4.13;;;;;;;;;;5061513;28;20036;-72
2023/08/28 00:31:09;;;;;;;13.30;5.03;;;;;;;;;;5061241;28;20519;-72
2023/08/28 00:33:39;;;;;;;11.68;5.43;;;;;;;;;;5061430;28;20047;-72
2023/08/28 00:36:10;;;;;;;10.63;2.95;;;;;;;;;;5070303;28;20052;-73
2023/08/28 00:38:40;;;;;;;9.05;3.47;;;;;;;;;;5079545;28;20446;-72
2023/08/28 00:41:13;;;;;;;6.82;2.92;;;;;;;;;;5078626;28;20427;-72
2023/08/28 00:43:43;;;;;;;13.55;3.90;;;;;;;;;;5079878;28;20063;-73
2023/08/28 00:46:16;;;;;;;10.48;3.60;;;;;;;;;;5079626;28;20142;-72
2023/08/28 00:48:46;;;;;;;6.57;2.33;;;;;;;;;;5080125;28;20056;-72
2023/08/28 00:51:17;;;;;;;8.80;2.53;;;;;;;;;;5078995;28;20060;-72
2023/08/28 00:53:47;;;;;;;;;;;;;;;;;;5081301;28;20044;-73
2023/08/28 00:56:19;;;;;;;5.28;2.55;;;;;;;;;;5080157;28;20401;-73
2023/08/28 00:58:50;;;;;;;5.45;2.70;;;;;;;;;;5079848;28;20063;-72
2023/08/28 01:01:21;;;;;;;8.05;3.60;;;;;;;;;;5079624;28;20101;-71
2023/08/28 01:03:50;;;;;;;;;;;;;;;;;;5080272;28;20044;-73
2023/08/28 01:06:38;;;;;;;5.22;2.30;;;;;;;;;;5063091;28;19924;-72
2023/08/28 01:09:27;;;;;;;3.70;2.17;;;;;;;;;;5081956;28;20506;-72
2023/08/28 01:12:13;;;;;;;5.50;2.35;;;;;;;;;;5081333;28;20418;-73
2023/08/28 01:15:02;;;;;;;4.32;2.05;;;;;;;;;;5081113;28;20518;-72
2023/08/28 01:17:32;;;;;;;;;;;;;;;;;;5081824;28;20052;-72
2023/08/28 01:20:04;;;;;;;3.25;1.50;;;;;;;;;;5084126;28;19924;-72
2023/08/28 01:23:05;;;;;;;4.65;1.77;;;;;;;;;;5085115;28;20063;-73
2023/08/28 01:25:36;;;;;;;5.93;1.75;;;;;;;;;;5082772;28;20052;-73
2023/08/28 01:28:06;;;;;;;5.80;1.65;;;;;;;;;;5085026;28;20055;-71
2023/08/28 01:30:38;;;;;;;1.10;0.70;;;;;;;;;;5083752;28;20058;-73
2023/08/28 01:33:08;;;;;;;4.22;1.10;;;;;;;;;;5083588;28;20494;-73
2023/08/28 01:35:39;;;;;;;4.13;1.10;;;;;;;;;;5082809;28;20052;-72
2023/08/28 01:38:24;;;;;;;3.53;1.20;;;;;;;;;;5085216;28;20044;-71
2023/08/28 01:41:00;;;;;;;12.30;3.47;;;;;;;;;;5083979;28;20047;-73
2023/08/28 01:43:45;;;;;;;12.18;4.88;;;;;;;;;;5084832;28;20051;-71
2023/08/28 01:46:17;;;;;;;8.48;4.47;;;;;;;;;;5083184;28;20537;-73
2023/08/28 01:48:53;;;;;;;5.90;2.80;;;;;;;;;;5085064;28;20981;-72
2023/08/28 01:51:25;;;;;;;7.00;2.00;;;;;;;;;;5084292;28;20044;-72
2023/08/28 01:53:55;;;;;;;11.35;4.80;;;;;;;;;;5084405;28;20040;-71
2023/08/28 01:56:26;;;;;;;15.75;3.72;;;;;;;;;;5083243;28;20086;-72
2023/08/28 01:58:58;;;;;;;5.05;2.65;;;;;;;;;;5082715;28;20438;-71
2023/08/28 02:01:29;;;;;;;6.43;2.17;;;;;;;;;;5082911;28;20059;-72
2023/08/28 02:04:01;;;;;;;4.20;1.25;;;;;;;;;;5084796;28;20047;-71
2023/08/28 02:06:32;;;;;;;2.92;1.05;;;;;;;;;;5082073;28;20052;-73
2023/08/28 02:09:04;;;;;;;2.67;1.42;;;;;;;;;;5082551;28;20511;-71
2023/08/28 02:11:34;;;;;;;4.82;1.13;;;;;;;;;;5084108;28;20125;-73
2023/08/28 02:14:06;;;;;;;9.65;0.98;;;;;;;;;;5082225;28;20052;-73
2023/08/28 02:16:39;;;;;;;2.08;0.85;;;;;;;;;;5066157;28;20060;-73
2023/08/28 02:19:10;;;;;;;2.20;1.00;;;;;;;;;;5083678;28;20060;-71
2023/08/28 02:21:41;;;;;;;3.08;0.80;;;;;;;;;;5082104;28;20056;-72
2023/08/28 02:24:11;;;;;;;5.40;0.60;;;;;;;;;;5082264;28;20723;-72
2023/08/28 02:26:42;;;;;;;4.95;0.95;;;;;;;;;;5082612;28;20059;-73
2023/08/28 02:29:13;;;;;;;3.10;1.10;;;;;;;;;;5083574;28;20048;-72
2023/08/28 02:31:45;;;;;;;1.63;0.90;;;;;;;;;;5082235;28;20056;-71
2023/08/28 02:34:16;;;;;;;6.10;0.73;;;;;;;;;;5084150;28;20048;-72
2023/08/28 02:36:46;;;;;;;7.78;1.08;;;;;;;;;;5083900;28;20395;-73
2023/08/28 02:39:16;;;;;;;2.85;0.88;;;;;;;;;;5082339;28;20490;-72
2023/08/28 02:41:46;;;;;;;7.55;1.25;;;;;;;;;;5081544;28;20060;-72
2023/08/28 02:44:16;;;;;;;;;;;;;;;;;;5082731;28;20063;-71
2023/08/28 02:46:47;;;;;;;1.48;0.70;;;;;;;;;;5083849;28;19924;-73
2023/08/28 02:49:17;;;;;;;2.90;0.70;;;;;;;;;;5081971;28;20051;-73
2023/08/28 02:51:49;;;;;;;1.13;0.60;;;;;;;;;;5081658;28;20499;-73
2023/08/28 02:54:19;;;;;;;3.53;1.15;;;;;;;;;;5083342;28;20063;-71
2023/08/28 02:56:50;;;;;;;8.20;1.48;;;;;;;;;;5081318;28;20055;-73
2023/08/28 02:59:19;;;;;;;;;;;;;;;;;;5082405;28;20052;-70
2023/08/28 03:01:49;;;;;;;13.68;2.55;;;;;;;;;;5083515;28;19924;-73
2023/08/28 03:04:20;;;;;;;7.32;1.60;;;;;;;;;;5081996;28;21257;-71
2023/08/28 03:06:50;;;;;;;1.92;1.17;;;;;;;;;;5081988;28;20805;-72
2023/08/28 03:09:21;;;;;;;2.45;0.90;;;;;;;;;;5080291;28;20087;-73
2023/08/28 03:11:53;;;;;;;2.15;1.05;;;;;;;;;;5083304;28;20793;-72
2023/08/28 03:14:23;;;;;;;2.50;0.90;;;;;;;;;;5081227;28;20613;-72
2023/08/28 03:16:53;;;;;;;;;;;;;;;;;;5081170;28;20585;-72
2023/08/28 03:19:23;;;;;;;1.13;0.77;;;;;;;;;;5080625;28;19934;-71
2023/08/28 03:21:55;;;;;;;1.45;0.63;;;;;;;;;;5080970;28;20063;-72
2023/08/28 03:24:25;;;;;;;4.15;1.10;;;;;;;;;;5081539;28;20060;-71
2023/08/28 03:26:55;;;;;;;2.35;1.02;;;;;;;;;;5083359;28;20044;-71
2023/08/28 03:29:26;;;;;;;1.45;0.60;;;;;;;;;;5083657;28;20447;-73
2023/08/28 03:31:56;;;;;;;2.20;0.60;;;;;;;;;;5081783;28;20040;-73
2023/08/28 03:34:27;;;;;;;1.02;0.60;;;;;;;;;;5083036;28;20048;-72
2023/08/28 03:36:57;;;;;;;1.70;0.85;;;;;;;;;;5080619;28;20404;-72
2023/08/28 03:39:27;;;;;;;;;;;;;;;;;;5080696;28;20048;-73
2023/08/28 03:41:57;;;;;;;5.20;1.08;;;;;;;;;;5082825;28;20382;-72
2023/08/28 03:44:28;;;;;;;0.88;0.60;;;;;;;;;;5082089;28;20052;-73
2023/08/28 03:46:58;;;;;;;3.38;0.52;;;;;;;;;;5082679;28;20047;-73
2023/08/28 03:49:30;;;;;;;1.42;0.90;;;;;;;;;;5080305;28;20055;-73
2023/08/28 03:52:01;;;;;;;1.95;0.60;;;;;;;;;;5080743;28;20054;-72
2023/08/28 03:54:33;;;;;;;3.58;0.70;;;;;;;;;;5080724;28;20051;-73
2023/08/28 03:57:03;;;;;;;2.13;1.00;;;;;;;;;;5064460;28;20052;-72
2023/08/28 03:59:35;;;;;;;1.15;0.90;;;;;;;;;;5081432;28;20064;-73
2023/08/28 04:02:05;;;;;;;1.63;0.60;;;;;;;;;;5080426;28;20059;-71
2023/08/28 04:04:35;;;;;;;1.15;0.60;;;;;;;;;;5064430;28;20048;-72
2023/08/28 04:07:06;;;;;;;5.15;0.70;;;;;;;;;;5082257;28;20048;-73
2023/08/28 04:09:38;;;;;;;7.13;0.95;;;;;;;;;;5081170;28;20048;-72
2023/08/28 04:12:09;;;;;;;5.28;0.70;;;;;;;;;;5079989;28;20047;-72
2023/08/28 04:14:41;;;;;;;4.03;0.70;;;;;;;;;;5080369;28;20067;-71
2023/08/28 04:17:12;;;;;;;1.02;0.70;;;;;;;;;;5080128;28;20052;-73
2023/08/28 04:19:44;;;;;;;2.78;0.90;;;;;;;;;;5081876;28;20525;-73
2023/08/28 04:22:14;;;;;;;2.50;1.10;;;;;;;;;;5079968;28;20064;-73
2023/08/28 04:24:46;;;;;;;1.15;0.85;;;;;;;;;;5079947;28;20060;-71
2023/08/28 04:27:18;;;;;;;2.58;0.50;;;;;;;;;;5080181;28;20538;-72
2023/08/28 04:29:50;;;;;;;0.82;0.65;;;;;;;;;;5082040;28;20634;-72
2023/08/28 04:32:23;;;;;;;1.73;0.60;;;;;;;;;;5081583;28;20044;-72
2023/08/28 04:34:53;;;;;;;3.10;0.43;;;;;;;;;;5082571;28;20407;-72
2023/08/28 04:37:26;;;;;;;1.05;0.60;;;;;;;;;;5079865;28;20056;-72
2023/08/28 04:39:57;;;;;;;4.28;0.63;;;;;;;;;;5082051;28;20057;-71
2023/08/28 04:42:27;;;;;;;2.22;0.77;;;;;;;;;;5081386;28;20063;-71
2023/08/28 04:44:58;;;;;;;2.30;0.73;;;;;;;;;;5081224;28;20048;-71
2023/08/28 04:47:29;;;;;;;4.25;1.17;;;;;;;;;;5079893;28;20063;-71
2023/08/28 04:50:01;;;;;;;7.82;2.20;;;;;;;;;;5081886;28;20044;-72
2023/08/28 04:52:31;;;;;;;3.22;1.13;;;;;;;;;;5084800;28;20056;-71
2023/08/28 04:55:01;;;;;;;2.55;1.25;;;;;;;;;;5083502;28;20389;-73
2023/08/28 04:57:32;;;;;;;5.30;1.60;;;;;;;;;;5085275;28;20044;-72
2023/08/28 05:00:05;;;;;;;2.22;1.20;;;;;;;;;;5085473;28;20059;-72
2023/08/28 05:02:37;;;;;;;2.38;1.10;;;;;;;;;;5085874;28;20048;-73
2023/08/28 05:05:07;;;;;;;2.03;1.00;;;;;;;;;;5086388;28;20887;-73
2023/08/28 05:07:37;;;;;;;2.95;1.70;;;;;;;;;;5085458;28;20629;-72
2023/08/28 05:10:07;;;;;;;3.95;1.88;;;;;;;;;;5082988;28;20048;-73
2023/08/28 05:12:39;;;;;;;2.03;1.33;;;;;;;;;;5086110;28;20048;-72
2023/08/28 05:15:10;;;;;;;3.25;1.60;;;;;;;;;;5083445;28;20051;-73
2023/08/28 05:17:41;;;;;;;3.17;1.80;;;;;;;;;;5084164;28;20510;-70
2023/08/28 05:20:12;;;;;;;3.67;1.48;;;;;;;;;;5083310;28;20071;-70
2023/08/28 05:22:44;;;;;;;5.10;1.50;;;;;;;;;;5085102;28;20044;-71
2023/08/28 05:25:14;;;;;;;2.33;1.63;;;;;;;;;;5083286;28;20059;-73
2023/08/28 05:27:44;;;;;;;4.93;1.77;;;;;;;;;;5083781;28;20052;-73
2023/08/28 05:30:15;;;;;;;4.07;1.63;;;;;;;;;;5084894;28;20063;-72
2023/08/28 05:32:45;;;;;;;4.57;2.03;;;;;;;;;;5082983;28;20845;-71
2023/08/28 05:35:16;;;;;;;6.55;2.10;;;;;;;;;;5083604;28;20055;-73
2023/08/28 05:37:45;;;;;;;;;;;;;;;;;;5084069;28;20052;-71
2023/08/28 05:40:16;;;;;;;2.50;1.20;;;;;;;;;;5083008;28;19924;-73
2023/08/28 05:42:46;;;;;;;3.17;1.63;;;;;;;;;;5083573;28;20066;-72
2023/08/28 05:45:17;;;;;;;2.55;1.35;;;;;;;;;;5082388;28;20048;-73
2023/08/28 05:47:48;;;;;;;2.53;1.30;;;;;;;;;;5082692;28;20423;-72
2023/08/28 05:50:19;;;;;;;2.22;1.20;;;;;;;;;;5083008;28;20368;-71
2023/08/28 05:52:49;;;;;;;2.53;1.55;;;;;;;;;;5084710;28;20048;-72
2023/08/28 05:55:20;;;;;;;4.40;1.67;;;;;;;;;;5083635;28;20051;-72
2023/08/28 05:57:51;;;;;;;2.13;1.20;;;;;;;;;;5082439;28;20059;-73
2023/08/28 06:00:22;;;;;;;2.38;1.27;;;;;;;;;;5083248;28;20064;-73
2023/08/28 06:02:53;;;;;;;3.53;1.80;;;;;;;;;;5081352;28;20044;-73
2023/08/28 06:05:23;;;;;;;5.43;1.92;;;;;;;;;;5084419;28;20052;-72
2023/08/28 06:07:54;;;;;;;3.67;1.35;;;;;;;;;;5082416;28;20052;-73
2023/08/28 06:10:25;;;;;;;7.22;1.52;;;;;;;;;;5083346;28;20059;-72
2023/08/28 06:12:55;;;;;;;2.63;0.80;;;;;;;;;;5084753;28;20415;-72
2023/08/28 06:15:25;;;;;;;1.73;0.93;;;;;;;;;;5084138;28;20051;-71
2023/08/28 06:17:55;;;;;;;;;;;;;;;;;;5082717;28;20052;-74
2023/08/28 06:20:25;;;;;;;2.35;0.90;;;;;;;;;;5082227;28;19934;-73
2023/08/28 06:22:55;;;;;;;;;;;;;;;;;;5082010;28;20060;-72
2023/08/28 06:25:25;;;;;;;1.02;0.73;;;;;;;;;;5083175;28;19995;-72
2023/08/28 06:27:57;;;;;;;0.80;0.70;;;;;;;;;;5082552;28;20063;-73
2023/08/28 06:30:28;;;;;;;2.00;0.60;;;;;;;;;;5082540;28;20055;-72
2023/08/28 06:33:01;;;;;;;1.30;0.60;;;;;;;;;;5081937;28;20511;-72
2023/08/28 06:35:34;;;;;;;0.73;0.57;;;;;;;;;;5083715;28;20044;-73
2023/08/28 06:38:04;;;;;;;3.17;0.70;;;;;;;;;;5083839;28;20055;-73
2023/08/28 06:40:34;;;;;;;1.38;0.60;;;;;;;;;;5081867;28;20431;-73
2023/08/28 06:43:04;;;;;;;1.10;0.90;;;;;;;;;;5083350;28;20059;-71
2023/08/28 06:45:35;;;;;;;5.30;1.15;;;;;;;;;;5082125;28;20051;-73
2023/08/28 06:48:07;;;;;;;0.77;0.70;;;;;;;;;;5082613;28;20526;-71
2023/08/28 06:50:38;;;;;;;0.73;0.57;;;;;;;;;;5083382;28;20052;-72
2023/08/28 06:53:08;;;;;;;0.40;0.38;;;;;;;;;;5083566;28;20319;-71
2023/08/28 06:55:39;;;;;;;0.98;0.55;;;;;;;;;;5082422;28;20056;-73
2023/08/28 06:58:09;;;;;;;1.65;0.60;;;;;;;;;;5081550;28;20059;-73
2023/08/28 07:00:40;;;;;;;2.40;0.80;;;;;;;;;;5083919;28;20487;-71
2023/08/28 07:03:10;;;;;;;0.65;0.55;;;;;;;;;;5083007;28;20052;-72
2023/08/28 07:05:41;;;;;;;3.30;0.90;;;;;;;;;;5083094;28;20044;-71
2023/08/28 07:08:12;;;;;;;2.67;1.23;;;;;;;;;;5082567;28;20051;-72
2023/08/28 07:10:42;;;;;;;5.68;0.90;;;;;;;;;;5081162;28;20056;-71
2023/08/28 07:13:12;;;;;;;7.03;0.80;;;;;;;;;;5082969;28;20048;-70
2023/08/28 07:15:42;;;;;;;;;;;;;;;;;;5082809;28;20110;-72
2023/08/28 07:18:12;;;;;;;3.97;0.68;;;;;;;;;;5083384;28;19924;-71
2023/08/28 07:20:44;;;;;;;1.02;0.60;;;;;;;;;;5082544;28;20040;-73
2023/08/28 07:23:14;;;;;;;3.45;0.85;;;;;;;;;;5083105;28;20051;-73
2023/08/28 07:25:44;;;;;;;1.77;0.90;;;;;;;;;;5082420;28;20497;-71
2023/08/28 07:28:15;;;;;;;3.55;1.02;;;;;;;;;;5083007;28;20044;-71
2023/08/28 07:30:46;;;;;;;0.57;0.50;;;;;;;;;;5083219;28;20052;-72
2023/08/28 07:33:18;;;;;;;0.40;0.40;;;;;;;;;;5080651;28;20054;-73
2023/08/28 07:35:48;;;;;;;0.63;0.50;;;;;;;;;;5082281;28;20070;-72
2023/08/28 07:38:18;;;;;;;2.78;0.90;;;;;;;;;;5082786;28;20044;-72
2023/08/28 07:40:50;;;;;;;4.50;1.00;;;;;;;;;;5082851;28;20044;-71
2023/08/28 07:43:21;;;;;;;3.03;0.90;;;;;;;;;;5082190;28;20055;-72
2023/08/28 07:45:52;;;;;;;2.70;0.90;;;;;;;;;;5082547;28;20040;-72
2023/08/28 07:48:23;;;;;;;1.38;0.70;;;;;;;;;;5082442;28;20044;-72
2023/08/28 07:50:53;;;;;;;1.50;0.63;;;;;;;;;;5082780;28;20932;-71
2023/08/28 07:53:24;;;;;;;2.75;1.13;;;;;;;;;;5083372;28;20048;-71
2023/08/28 07:55:55;;;;;;;2.88;1.10;;;;;;;;;;5081187;28;20059;-70
2023/08/28 07:58:25;;;;;;;3.20;0.90;;;;;;;;;;5080879;28;20052;-71
2023/08/28 08:00:56;;;;;;;2.00;1.45;;;;;;;;;;5081718;28;20071;-72
2023/08/28 08:03:27;;;;;;;2.58;1.17;;;;;;;;;;5082152;28;20411;-72
2023/08/28 08:05:57;;;;;;;5.05;1.30;;;;;;;;;;5081288;28;20040;-72
2023/08/28 08:08:28;;;;;;;2.38;1.17;;;;;;;;;;5078162;28;20059;-72
2023/08/28 08:10:58;;;;;;;2.13;0.75;;;;;;;;;;5079537;28;20669;-71
2023/08/28 08:13:29;;;;;;;3.63;1.10;;;;;;;;;;5078549;28;20518;-73
2023/08/28 08:15:59;;;;;;;6.72;1.23;;;;;;;;;;5079109;28;20056;-72
2023/08/28 08:18:31;;;;;;;1.83;1.00;;;;;;;;;;5079088;28;20059;-73
2023/08/28 08:21:03;;;;;;;6.82;1.20;;;;;;;;;;5079670;28;20075;-73
2023/08/28 08:23:34;;;;;;;2.28;1.15;;;;;;;;;;5079291;28;20392;-73
2023/08/28 08:26:04;;;;;;;1.88;0.85;;;;;;;;;;5078284;28;20059;-73
2023/08/28 08:28:35;;;;;;;1.75;0.80;;;;;;;;;;5079600;28;20051;-73
2023/08/28 08:31:06;;;;;;;1.48;0.85;;;;;;;;;;5079115;28;20048;-72
2023/08/28 08:33:38;;;;;;;4.35;1.10;;;;;;;;;;5078933;28;20106;-71
2023/08/28 08:36:08;;;;;;;1.23;0.80;;;;;;;;;;5078801;28;20063;-73
2023/08/28 08:38:37;;;;;;;;;;;;;;;;;;5079483;28;20044;-71
2023/08/28 08:41:10;;;;;;;3.80;1.67;;;;;;;;;;5079176;28;19947;-72
2023/08/28 08:43:42;;;;;;;3.55;2.10;;;;;;;;;;5078768;28;20538;-72
2023/08/28 08:46:13;;;;;;;5.95;2.10;;;;;;;;;;5078490;28;20047;-73
2023/08/28 08:48:45;;;;;;;2.40;1.63;;;;;;;;;;5078788;28;20036;-72
2023/08/28 08:51:18;;;;;;;2.92;1.60;;;;;;;;;;5079555;28;20059;-71
2023/08/28 08:54:18;;;;;;;10.40;1.65;;;;;;;;;;5078972;28;20047;-73
2023/08/28 08:56:53;;;;;;;2.95;1.58;;;;;;;;;;5078644;28;20051;-70
2023/08/28 08:59:26;;;;;;;6.30;1.73;;;;;;;;;;5079377;28;20048;-74
2023/08/28 09:01:59;;;;;;;5.05;1.48;;;;;;;;;;5077778;28;20063;-73
2023/08/28 09:04:33;;;;;;;2.58;1.50;;;;;;;;;;5078732;28;20044;-72
2023/08/28 09:07:05;;;;;;;2.42;1.40;;;;;;;;;;5077919;28;20052;-73
2023/08/28 09:09:36;;;;;;;3.50;1.77;;;;;;;;;;5078415;28;20122;-71
2023/08/28 09:12:05;;;;;;;;;;;;;;;;;;5079552;28;20055;-73
2023/08/28 09:14:36;;;;;;;1.27;1.00;;;;;;;;;;5079149;28;19923;-73
2023/08/28 09:17:09;;;;;;;4.28;1.45;;;;;;;;;;5078667;28;20055;-73
2023/08/28 09:19:39;;;;;;;3.88;1.40;;;;;;;;;;5076441;28;20048;-72
2023/08/28 09:22:10;;;;;;;4.60;1.52;;;;;;;;;;5078060;28;20122;-71
2023/08/28 09:24:41;;;;;;;1.75;1.30;;;;;;;;;;5077334;28;20074;-72
2023/08/28 09:27:13;;;;;;;1.42;1.10;;;;;;;;;;5079118;28;20051;-71
2023/08/28 09:29:44;;;;;;;2.50;0.98;;;;;;;;;;5078503;28;20048;-72
2023/08/28 09:32:26;;;;;;;2.15;1.33;;;;;;;;;;5078012;28;20048;-76
2023/08/28 09:34:56;;;;;;;1.77;1.13;;;;;;;;;;5079132;28;20048;-73
2023/08/28 09:37:28;;;;;;;3.67;1.35;;;;;;;;;;5076502;28;20059;-73
2023/08/28 09:40:00;;;;;;;2.80;1.17;;;;;;;;;;5082133;28;20775;-72
2023/08/28 09:42:32;;;;;;;8.20;1.75;;;;;;;;;;5082010;28;20063;-72
2023/08/28 09:45:08;;;;;;;2.25;1.05;;;;;;;;;;5082141;28;20064;-73
2023/08/28 09:47:38;;;;;;;2.95;1.38;;;;;;;;;;5081993;28;20050;-71
2023/08/28 09:50:09;;;;;;;10.43;1.30;;;;;;;;;;5081971;28;20533;-73
2023/08/28 09:52:39;;;;;;;4.32;1.30;;;;;;;;;;5082040;28;20071;-74
2023/08/28 09:55:10;;;;;;;1.67;0.98;;;;;;;;;;5082072;28;20048;-71
2023/08/28 09:57:42;;;;;;;;;;;;;;;;;;5082428;28;20525;-72
2023/08/28 10:00:13;;;;;;;5.30;1.10;;;;;;;;;;5082095;28;20417;-74
2023/08/28 10:02:43;;;;;;;;;;;;;;;;;;5082857;28;20048;-72
2023/08/28 10:05:19;;;;;;;6.32;0.85;;;;;;;;;;5081952;28;20302;-72
2023/08/28 10:07:52;;;;;;;2.00;0.98;;;;;;;;;;5083745;28;20042;-79
2023/08/28 10:10:24;;;;;;;3.15;1.27;;;;;;;;;;5085802;28;20754;-72
2023/08/28 10:12:55;;;;;;;3.13;0.95;;;;;;;;;;5082624;28;20051;-73
2023/08/28 10:15:27;;;;;;;3.50;1.55;;;;;;;;;;5061775;28;20059;-72
2023/08/28 10:18:04;;;;;;;5.13;0.90;;;;;;;;;;5060937;28;20407;-71
2023/08/28 10:20:35;;;;;;;3.08;1.30;;;;;;;;;;5061690;28;20048;-75
2023/08/28 10:23:10;;;;;;;11.68;1.50;;;;;;;;;;5061224;28;20059;-72
2023/08/28 10:25:43;;;;;;;2.08;1.00;;;;;;;;;;5061170;28;20044;-74
2023/08/28 10:28:14;;;;;;;1.88;1.00;;;;;;;;;;5061301;28;20480;-74
2023/08/28 10:30:46;;;;;;;2.60;1.15;;;;;;;;;;5059868;28;20707;-71
2023/08/28 10:33:20;;;;;;;10.80;1.00;;;;;;;;;;5061113;28;20052;-72
2023/08/28 10:35:52;;;;;;;8.88;1.42;;;;;;;;;;5059547;28;20052;-72
2023/08/28 10:38:23;;;;;;;2.72;1.50;;;;;;;;;;5059550;28;20067;-73
2023/08/28 10:40:58;;;;;;;4.47;1.38;;;;;;;;;;5059593;28;20044;-71
2023/08/28 10:43:32;;;;;;;10.82;2.20;;;;;;;;;;5061175;28;20048;-74
2023/08/28 10:46:04;;;;;;;3.35;1.90;;;;;;;;;;5060771;28;20053;-73
2023/08/28 10:48:38;;;;;;;3.08;1.25;;;;;;;;;;5060457;28;20407;-71
2023/08/28 10:51:12;;;;;;;3.33;1.98;;;;;;;;;;5061615;28;20051;-71
2023/08/28 10:53:43;;;;;;;5.40;1.90;;;;;;;;;;5060795;28;20047;-74
2023/08/28 10:56:17;;;;;;;3.83;1.35;;;;;;;;;;5060375;28;20072;-73
2023/08/28 10:58:48;;;;;;;3.35;1.10;;;;;;;;;;5060547;28;20048;-76
2023/08/28 11:01:19;;;;;;;9.75;1.70;;;;;;;;;;5059719;28;20075;-72
2023/08/28 11:03:57;;;;;;;4.00;2.20;;;;;;;;;;5060159;28;20064;-72
2023/08/28 11:06:45;;;;;;;7.68;1.92;;;;;;;;;;5060077;28;20116;-72
2023/08/28 11:09:27;;;;;;;3.33;1.25;;;;;;;;;;5059838;28;20047;-72
2023/08/28 11:11:58;;;;;;;1.40;1.13;;;;;;;;;;5059911;28;20056;-73
2023/08/28 11:14:56;;;;;;;4.05;1.33;;;;;;;;;;5059975;28;20150;-77
2023/08/28 11:17:29;;;;;;;3.65;1.55;;;;;;;;;;5060184;28;20052;-72
2023/08/28 11:20:00;;;;;;;11.48;2.58;;;;;;;;;;5060223;28;20053;-76
2023/08/28 11:22:38;;;;;;;20.55;2.53;;;;;;;;;;5060272;28;20071;-72
2023/08/28 11:25:34;;;;;;;4.38;3.00;;;;;;;;;;5059684;28;20075;-74
2023/08/28 11:28:31;;;;;;;2.42;1.05;;;;;;;;;;5060218;28;20052;-73
2023/08/28 11:31:04;;;;;;;3.70;1.50;;;;;;;;;;5060272;28;20048;-73
2023/08/28 11:33:40;;;;;;;2.25;1.00;;;;;;;;;;5073836;28;20448;-77
2023/08/28 11:36:20;;;;;;;3.25;1.02;;;;;;;;;;5080108;28;20048;-74
2023/08/28 11:38:55;;;;;;;1.67;0.70;;;;;;;;;;5076306;28;20040;-73
2023/08/28 11:41:25;;;;;;;2.78;0.80;;;;;;;;;;5059954;28;20088;-73
2023/08/28 11:43:55;;;;;;;5.60;1.67;;;;;;;;;;5059566;28;20499;-74
2023/08/28 11:46:26;;;;;;;3.35;1.75;;;;;;;;;;5059533;28;20055;-76
2023/08/28 11:48:57;;;;;;;13.20;6.05;;;;;;;;;;5059513;28;20067;-74
2023/08/28 11:51:28;;;;;;;5.25;1.90;;;;;;;;;;5060257;28;20061;-73
2023/08/28 11:53:59;;;;;;;5.22;1.52;;;;;;;;;;5059342;28;20581;-74
2023/08/28 11:56:41;;;;;;;9.80;2.72;;;;;;;;;;5059535;28;20052;-73
2023/08/28 11:59:11;;;;;;;3.47;1.42;;;;;;;;;;5059487;28;20522;-73
2023/08/28 12:01:46;;;;;;;6.30;1.30;;;;;;;;;;5059233;28;20048;-73
2023/08/28 12:04:22;;;;;;;2.45;0.80;;;;;;;;;;5059457;28;20052;-72
2023/08/28 12:06:52;;;;;;;3.88;1.00;;;;;;;;;;5059919;28;20056;-74
2023/08/28 12:09:23;;;;;;;4.00;1.42;;;;;;;;;;5059478;28;20060;-80
2023/08/28 12:11:55;;;;;;;5.53;1.42;;;;;;;;;;5059164;28;20091;-73
2023/08/28 12:14:25;;;;;;;9.65;1.20;;;;;;;;;;5059456;28;20054;-76
2023/08/28 12:17:00;;;;;;;5.60;1.48;;;;;;;;;;5058318;28;20051;-73
2023/08/28 12:19:32;;;;;;;2.83;1.00;;;;;;;;;;5059295;28;20036;-73
2023/08/28 12:22:05;;;;;;;3.55;0.70;;;;;;;;;;5058694;28;20056;-73
2023/08/28 12:24:46;;;;;;;7.15;0.88;;;;;;;;;;5057250;28;20524;-75
2023/08/28 12:27:27;;;;;;;2.22;0.90;;;;;;;;;;5058811;28;20503;-72
2023/08/28 12:29:59;;;;;;;6.60;1.27;;;;;;;;;;5059186;28;20052;-74
2023/08/28 12:32:30;;;;;;;2.83;0.70;;;;;;;;;;5059134;28;20538;-73
2023/08/28 12:35:14;;;;;;;2.15;0.80;;;;;;;;;;5059041;28;20668;-72
2023/08/28 12:37:48;;;;;;;2.40;0.82;;;;;;;;;;5058431;28;20052;-75
2023/08/28 12:40:19;;;;;;;4.20;0.95;;;;;;;;;;5059700;28;20056;-73
2023/08/28 12:42:58;;;;;;;2.60;1.40;;;;;;;;;;5059329;28;20055;-76
2023/08/28 12:45:33;;;;;;;3.85;0.63;;;;;;;;;;5056837;28;20056;-74
2023/08/28 12:48:03;;;;;;;3.00;1.17;;;;;;;;;;5060641;28;20045;-74
2023/08/28 12:50:34;;;;;;;12.13;1.17;;;;;;;;;;5058311;28;20045;-75
2023/08/28 12:53:05;;;;;;;2.67;0.90;;;;;;;;;;5058807;28;20056;-74
2023/08/28 12:55:35;;;;;;;5.53;0.90;;;;;;;;;;5059051;28;20053;-75
2023/08/28 12:58:05;;;;;;;1.55;0.90;;;;;;;;;;5058996;28;20048;-75
2023/08/28 13:00:36;;;;;;;5.03;0.80;;;;;;;;;;5058571;28;20040;-73
2023/08/28 13:03:06;;;;;;;5.38;1.38;;;;;;;;;;5059066;28;20048;-73
2023/08/28 13:05:37;;;;;;;1.55;0.98;;;;;;;;;;5058600;28;20048;-79
2023/08/28 13:08:08;;;;;;;4.22;0.75;;;;;;;;;;5058545;28;20045;-74
2023/08/28 13:10:38;;;;;;;3.80;0.47;;;;;;;;;;5058673;28;20052;-74
2023/08/28 13:13:09;;;;;;;7.15;1.42;;;;;;;;;;5059767;28;20131;-73
2023/08/28 13:15:42;;;;;;;6.43;0.95;;;;;;;;;;5062572;28;20048;-74
2023/08/28 13:18:12;;;;;;;2.13;0.77;;;;;;;;;;5063123;28;20048;-74
2023/08/28 13:20:45;;;;;;;1.45;0.70;;;;;;;;;;5061852;28;20398;-73
2023/08/28 13:23:17;;;;;;;3.92;0.77;;;;;;;;;;5062050;28;20079;-73
2023/08/28 13:25:48;;;;;;;4.05;0.93;;;;;;;;;;5062154;28;20071;-74
2023/08/28 13:28:21;;;;;;;6.80;1.00;;;;;;;;;;5061897;28;20063;-74
2023/08/28 13:30:51;;;;;;;1.88;0.70;;;;;;;;;;5060969;28;20048;-75
2023/08/28 13:33:22;;;;;;;4.25;0.90;;;;;;;;;;5062371;28;20395;-77
2023/08/28 13:35:53;;;;;;;16.42;6.07;;;;;;;;;;5062619;28;20534;-74
2023/08/28 13:38:24;;;;;;;11.55;2.70;;;;;;;;;;5062512;28;20040;-73
2023/08/28 13:40:54;;;;;;;3.80;0.95;;;;;;;;;;5062156;28;20424;-76
2023/08/28 13:43:24;;;;;;;2.67;0.63;;;;;;;;;;5060372;28;20764;-73
2023/08/28 13:45:56;;;;;;;5.22;1.00;;;;;;;;;;5062295;28;20053;-75
2023/08/28 13:48:27;;;;;;;4.53;0.93;;;;;;;;;;5062232;28;20530;-74
2023/08/28 13:50:57;;;;;;;3.00;1.08;;;;;;;;;;5061553;28;20044;-75
2023/08/28 13:53:28;;;;;;;1.52;0.80;;;;;;;;;;5062026;28;20053;-74
2023/08/28 13:56:00;;;;;;;5.43;0.90;;;;;;;;;;5060346;28;20044;-74
2023/08/28 13:58:30;;;;;;;3.97;1.17;;;;;;;;;;5061669;28;20051;-79
2023/08/28 14:01:05;;;;;;;4.10;0.93;;;;;;;;;;5061341;28;20048;-74
2023/08/28 14:03:36;;;;;;;2.67;0.60;;;;;;;;;;5061927;28;20510;-74
2023/08/28 14:06:07;;;;;;;2.03;0.68;;;;;;;;;;5060972;28;20048;-74
2023/08/28 14:08:37;;;;;;;3.13;0.60;;;;;;;;;;5060401;28;20091;-73
2023/08/28 14:11:09;;;;;;;2.67;0.80;;;;;;;;;;5059853;28;20056;-74
2023/08/28 14:13:40;;;;;;;6.22;0.90;;;;;;;;;;5061693;28;20045;-75
2023/08/28 14:16:10;;;;;;;3.78;1.13;;;;;;;;;;5061034;28;20541;-80
2023/08/28 14:18:40;;;;;;;2.85;0.60;;;;;;;;;;5059932;28;20044;-74
2023/08/28 14:21:10;;;;;;;2.35;0.60;;;;;;;;;;5061385;28;20049;-74
2023/08/28 14:23:42;;;;;;;2.08;0.70;;;;;;;;;;5060754;28;20071;-74
2023/08/28 14:26:13;;;;;;;3.42;1.10;;;;;;;;;;5061375;28;20522;-73
2023/08/28 14:28:44;;;;;;;4.47;0.75;;;;;;;;;;5060609;28;20048;-74
2023/08/28 14:31:14;;;;;;;3.17;0.40;;;;;;;;;;5060853;28;20385;-75
2023/08/28 14:33:45;;;;;;;2.03;0.60;;;;;;;;;;5061018;28;20041;-76
2023/08/28 14:36:15;;;;;;;5.95;0.55;;;;;;;;;;5061058;28;20616;-74
2023/08/28 14:38:46;;;;;;;2.55;0.40;;;;;;;;;;5060445;28;20048;-75
2023/08/28 14:41:16;;;;;;;2.60;0.68;;;;;;;;;;5061167;28;20507;-73
2023/08/28 14:43:47;;;;;;;3.20;0.93;;;;;;;;;;5061360;28;20419;-74
2023/08/28 14:46:18;;;;;;;2.90;0.50;;;;;;;;;;5060673;28;20052;-75
2023/08/28 14:48:49;;;;;;;1.65;0.70;;;;;;;;;;5060379;28;20467;-74
2023/08/28 14:51:20;;;;;;;3.45;1.00;;;;;;;;;;5059506;28;20502;-82
2023/08/28 14:53:50;;;;;;;1.85;0.68;;;;;;;;;;5060301;28;20632;-80
2023/08/28 14:56:26;;;;;;;1.40;0.50;;;;;;;;;;5060944;28;20525;-74
2023/08/28 14:58:57;;;;;;;1.42;0.40;;;;;;;;;;5060837;28;20792;-73
2023/08/28 15:01:27;;;;;;;1.05;0.40;;;;;;;;;;5061000;28;20546;-72
2023/08/28 15:03:58;;;;;;;5.43;1.63;;;;;;;;;;5060756;28;20044;-72
2023/08/28 15:06:29;;;;;;;6.15;0.70;;;;;;;;;;5059275;28;20059;-74
2023/08/28 15:09:00;;;;;;;4.22;0.70;;;;;;;;;;5059624;28;20051;-74
2023/08/28 15:11:31;;;;;;;4.05;0.75;;;;;;;;;;5060007;28;20048;-74
2023/08/28 15:14:00;;;;;;;2.83;0.60;;;;;;;;;;5060124;28;20056;-76